SWA2262 KTYS-KDAL
Flight info
| Callsign | SWA2262 |
|---|---|
| Flight time | 1h 53m |
| Altitude | 36000 |
| Route | SMTTH METWO Q66 LITTR DIRRK HIBIL3 |
| Aircraft | B737/M-SDE2E3FGHIRWXY/LB1 |
Departure
| Time | 2026-04-26 15:42 |
|---|---|
| Airport | McGhee Tyson Airport (KTYS) |
Arrival
| Time | 2026-04-26 17:36 |
|---|---|
| Airport | Dallas Love Field (KDAL) |
| Time | Latitude | Longitude | Altitude | Speed | Heading |
|---|---|---|---|---|---|
| 2026-04-26 15:21 | 35.80715 | -83.99135 | 967 ft | 0 kts | 136° |
| 2026-04-26 15:33 | 35.80733 | -83.99157 | 962 ft | 3 kts | 136° |
| 2026-04-26 15:33 | 35.80749 | -83.99173 | 963 ft | 4 kts | 150° |
| 2026-04-26 15:34 | 35.80759 | -83.99181 | 967 ft | 1 kts | 145° |
| 2026-04-26 15:36 | 35.80754 | -83.99179 | 967 ft | 3 kts | 165° |
| 2026-04-26 15:37 | 35.80738 | -83.99210 | 967 ft | 7 kts | 287° |
| 2026-04-26 15:37 | 35.80778 | -83.99263 | 962 ft | 11 kts | 286° |
| 2026-04-26 15:37 | 35.80735 | -83.99347 | 964 ft | 13 kts | 224° |
| 2026-04-26 15:37 | 35.80662 | -83.99436 | 963 ft | 16 kts | 225° |
| 2026-04-26 15:38 | 35.80574 | -83.99543 | 965 ft | 19 kts | 224° |
| 2026-04-26 15:38 | 35.80471 | -83.99654 | 963 ft | 20 kts | 217° |
| 2026-04-26 15:38 | 35.80369 | -83.99770 | 964 ft | 20 kts | 224° |
| 2026-04-26 15:38 | 35.80266 | -83.99894 | 964 ft | 21 kts | 225° |
| 2026-04-26 15:39 | 35.80157 | -84.00028 | 963 ft | 22 kts | 225° |
| 2026-04-26 15:39 | 35.80049 | -84.00160 | 966 ft | 22 kts | 225° |
| 2026-04-26 15:39 | 35.79973 | -84.00255 | 965 ft | 10 kts | 226° |
| 2026-04-26 15:39 | 35.79962 | -84.00270 | 965 ft | 7 kts | 230° |
| 2026-04-26 15:40 | 35.79956 | -84.00292 | 965 ft | 0 kts | 264° |
| 2026-04-26 15:41 | 35.79956 | -84.00293 | 965 ft | 1 kts | 264° |
| 2026-04-26 15:41 | 35.79965 | -84.00326 | 963 ft | 9 kts | 304° |
| 2026-04-26 15:41 | 35.80045 | -84.00352 | 959 ft | 17 kts | 38° |
| 2026-04-26 15:41 | 35.80242 | -84.00115 | 960 ft | 78 kts | 44° |
| 2026-04-26 15:42 | 35.80821 | -83.99412 | 962 ft | 152 kts | 44° |
| 2026-04-26 15:42 | 35.81630 | -83.98435 | 1589 ft | 171 kts | 44° |
| 2026-04-26 15:42 | 35.82610 | -83.97290 | 1948 ft | 211 kts | 41° |
| 2026-04-26 15:42 | 35.83683 | -83.96052 | 2767 ft | 223 kts | 43° |
| 2026-04-26 15:43 | 35.84842 | -83.94674 | 3462 ft | 237 kts | 43° |
| 2026-04-26 15:43 | 35.86093 | -83.93328 | 4369 ft | 241 kts | 28° |
| 2026-04-26 15:43 | 35.89254 | -83.93875 | 6093 ft | 258 kts | 320° |
| 2026-04-26 15:44 | 35.90082 | -83.95040 | 6501 ft | 274 kts | 306° |
| 2026-04-26 15:44 | 35.91232 | -83.99597 | 8398 ft | 289 kts | 279° |
| 2026-04-26 15:44 | 35.91513 | -84.02087 | 9345 ft | 296 kts | 279° |
| 2026-04-26 15:45 | 35.92103 | -84.07299 | 10688 ft | 329 kts | 280° |
| 2026-04-26 15:45 | 35.92453 | -84.10224 | 10910 ft | 358 kts | 280° |
| 2026-04-26 15:46 | 35.93245 | -84.16641 | 11909 ft | 390 kts | 281° |
| 2026-04-26 15:46 | 35.93661 | -84.19968 | 12666 ft | 396 kts | 281° |
| 2026-04-26 15:46 | 35.94080 | -84.23302 | 13751 ft | 391 kts | 281° |
| 2026-04-26 15:46 | 35.94363 | -84.25547 | 14396 ft | 392 kts | 281° |
| 2026-04-26 15:47 | 35.94922 | -84.29966 | 15530 ft | 395 kts | 281° |
| 2026-04-26 15:47 | 35.95769 | -84.36670 | 17277 ft | 396 kts | 281° |
| 2026-04-26 15:47 | 35.96193 | -84.40032 | 18097 ft | 396 kts | 281° |
| 2026-04-26 15:48 | 35.96616 | -84.43396 | 18891 ft | 397 kts | 281° |
| 2026-04-26 15:48 | 35.97039 | -84.46775 | 19632 ft | 399 kts | 281° |
| 2026-04-26 15:48 | 35.97464 | -84.50167 | 20367 ft | 400 kts | 281° |
| 2026-04-26 15:48 | 35.97888 | -84.53563 | 21076 ft | 401 kts | 280° |
| 2026-04-26 15:49 | 35.98313 | -84.56972 | 21731 ft | 403 kts | 280° |
| 2026-04-26 15:49 | 35.98732 | -84.60353 | 22362 ft | 404 kts | 280° |
| 2026-04-26 15:49 | 35.99159 | -84.63791 | 22973 ft | 406 kts | 280° |
| 2026-04-26 15:49 | 35.99586 | -84.67243 | 23571 ft | 407 kts | 280° |
| 2026-04-26 15:50 | 36.00014 | -84.70712 | 24135 ft | 409 kts | 279° |
| 2026-04-26 15:50 | 36.00441 | -84.74185 | 24648 ft | 412 kts | 280° |
| 2026-04-26 15:50 | 36.00875 | -84.77715 | 24981 ft | 418 kts | 280° |
| 2026-04-26 15:50 | 36.01312 | -84.81283 | 25460 ft | 421 kts | 280° |
| 2026-04-26 15:51 | 36.01749 | -84.84863 | 25952 ft | 422 kts | 280° |
| 2026-04-26 15:51 | 36.02188 | -84.88468 | 26402 ft | 424 kts | 280° |
| 2026-04-26 15:51 | 36.02621 | -84.92036 | 26868 ft | 426 kts | 280° |
| 2026-04-26 15:51 | 36.03060 | -84.95661 | 27298 ft | 428 kts | 280° |
| 2026-04-26 15:52 | 36.03500 | -84.99312 | 27693 ft | 430 kts | 280° |
| 2026-04-26 15:52 | 36.03942 | -85.02974 | 28090 ft | 432 kts | 280° |
| 2026-04-26 15:52 | 36.04386 | -85.06656 | 28452 ft | 434 kts | 280° |
| 2026-04-26 15:52 | 36.04680 | -85.09103 | 28695 ft | 435 kts | 280° |
| 2026-04-26 15:53 | 36.05273 | -85.14058 | 29284 ft | 434 kts | 281° |
| 2026-04-26 15:53 | 36.05710 | -85.17727 | 29905 ft | 429 kts | 281° |
| 2026-04-26 15:53 | 36.06142 | -85.21366 | 30458 ft | 426 kts | 281° |
| 2026-04-26 15:53 | 36.06571 | -85.24974 | 31004 ft | 423 kts | 281° |
| 2026-04-26 15:54 | 36.06936 | -85.28578 | 31505 ft | 422 kts | 276° |
| 2026-04-26 15:54 | 36.06947 | -85.32212 | 31949 ft | 424 kts | 270° |
| 2026-04-26 15:54 | 36.06553 | -85.35835 | 32379 ft | 427 kts | 263° |
| 2026-04-26 15:54 | 36.05926 | -85.39397 | 32904 ft | 423 kts | 262° |
| 2026-04-26 15:55 | 36.05288 | -85.42940 | 33331 ft | 421 kts | 262° |
| 2026-04-26 15:55 | 36.04655 | -85.46472 | 33748 ft | 419 kts | 262° |
| 2026-04-26 15:55 | 36.04033 | -85.49980 | 34144 ft | 417 kts | 263° |
| 2026-04-26 15:55 | 36.03421 | -85.53466 | 34533 ft | 415 kts | 263° |
| 2026-04-26 15:56 | 36.02815 | -85.56946 | 34862 ft | 414 kts | 263° |
| 2026-04-26 15:56 | 36.02210 | -85.60427 | 35152 ft | 414 kts | 263° |
| 2026-04-26 15:56 | 36.01607 | -85.63899 | 35488 ft | 412 kts | 263° |
| 2026-04-26 15:56 | 36.01013 | -85.67305 | 35817 ft | 411 kts | 263° |
| 2026-04-26 15:57 | 36.00410 | -85.70763 | 36063 ft | 412 kts | 263° |
| 2026-04-26 15:57 | 35.99193 | -85.77716 | 36038 ft | 414 kts | 263° |
| 2026-04-26 15:58 | 35.97976 | -85.84636 | 36046 ft | 409 kts | 263° |
| 2026-04-26 15:58 | 35.96759 | -85.91485 | 36039 ft | 408 kts | 263° |
| 2026-04-26 15:59 | 35.95525 | -85.98316 | 36035 ft | 407 kts | 263° |
| 2026-04-26 15:59 | 35.94290 | -86.05134 | 36042 ft | 407 kts | 263° |
| 2026-04-26 16:00 | 35.93054 | -86.11944 | 36030 ft | 407 kts | 263° |
| 2026-04-26 16:00 | 35.91811 | -86.18769 | 36035 ft | 407 kts | 263° |
| 2026-04-26 16:01 | 35.90575 | -86.25539 | 36028 ft | 407 kts | 263° |
| 2026-04-26 16:01 | 35.89327 | -86.32353 | 36027 ft | 408 kts | 263° |
| 2026-04-26 16:02 | 35.88064 | -86.39218 | 36026 ft | 408 kts | 262° |
| 2026-04-26 16:02 | 35.86813 | -86.46000 | 36027 ft | 409 kts | 263° |
| 2026-04-26 16:03 | 35.85550 | -86.52825 | 36034 ft | 408 kts | 262° |
| 2026-04-26 16:03 | 35.84284 | -86.59645 | 36047 ft | 408 kts | 262° |
| 2026-04-26 16:04 | 35.83016 | -86.66445 | 36041 ft | 407 kts | 262° |
| 2026-04-26 16:04 | 35.81747 | -86.73235 | 36044 ft | 406 kts | 262° |
| 2026-04-26 16:05 | 35.80477 | -86.80013 | 36035 ft | 406 kts | 262° |
| 2026-04-26 16:05 | 35.79202 | -86.86783 | 36026 ft | 405 kts | 262° |
| 2026-04-26 16:06 | 35.77926 | -86.93545 | 36030 ft | 404 kts | 262° |
| 2026-04-26 16:06 | 35.76650 | -87.00281 | 36026 ft | 404 kts | 262° |
| 2026-04-26 16:07 | 35.75373 | -87.07008 | 36021 ft | 403 kts | 262° |
| 2026-04-26 16:07 | 35.74099 | -87.13690 | 36016 ft | 403 kts | 262° |
| 2026-04-26 16:08 | 35.72814 | -87.20402 | 36017 ft | 402 kts | 262° |
| 2026-04-26 16:08 | 35.71528 | -87.27103 | 36023 ft | 402 kts | 262° |
| 2026-04-26 16:09 | 35.70240 | -87.33800 | 36016 ft | 401 kts | 262° |
| 2026-04-26 16:09 | 35.68961 | -87.40422 | 36014 ft | 400 kts | 262° |
| 2026-04-26 16:10 | 35.67673 | -87.47076 | 36013 ft | 399 kts | 261° |
| 2026-04-26 16:10 | 35.66380 | -87.53720 | 36022 ft | 399 kts | 261° |
| 2026-04-26 16:11 | 35.65085 | -87.60365 | 36017 ft | 399 kts | 261° |
| 2026-04-26 16:11 | 35.63789 | -87.66992 | 36024 ft | 398 kts | 261° |
| 2026-04-26 16:12 | 35.62489 | -87.73621 | 36015 ft | 399 kts | 261° |
| 2026-04-26 16:12 | 35.60529 | -87.83572 | 36019 ft | 400 kts | 261° |
| 2026-04-26 16:13 | 35.59217 | -87.90212 | 36021 ft | 400 kts | 261° |
| 2026-04-26 16:13 | 35.57906 | -87.96821 | 36017 ft | 401 kts | 261° |
| 2026-04-26 16:14 | 35.56582 | -88.03476 | 36016 ft | 401 kts | 261° |
| 2026-04-26 16:15 | 35.54590 | -88.13448 | 36025 ft | 400 kts | 261° |
| 2026-04-26 16:15 | 35.53261 | -88.20090 | 36032 ft | 400 kts | 261° |
| 2026-04-26 16:16 | 35.51256 | -88.30047 | 36019 ft | 401 kts | 261° |
| 2026-04-26 16:16 | 35.49922 | -88.36652 | 36017 ft | 400 kts | 261° |
| 2026-04-26 16:17 | 35.48577 | -88.43285 | 36017 ft | 400 kts | 261° |
| 2026-04-26 16:17 | 35.47233 | -88.49903 | 36005 ft | 400 kts | 261° |
| 2026-04-26 16:18 | 35.45210 | -88.59820 | 36015 ft | 399 kts | 261° |
| 2026-04-26 16:19 | 35.43179 | -88.69735 | 36009 ft | 399 kts | 261° |
| 2026-04-26 16:20 | 35.41149 | -88.79595 | 36010 ft | 399 kts | 261° |
| 2026-04-26 16:20 | 35.39108 | -88.89474 | 36011 ft | 399 kts | 261° |
| 2026-04-26 16:21 | 35.37749 | -88.96067 | 36010 ft | 399 kts | 261° |
| 2026-04-26 16:21 | 35.36397 | -89.02657 | 35997 ft | 398 kts | 261° |
| 2026-04-26 16:22 | 35.35043 | -89.09239 | 36000 ft | 398 kts | 261° |
| 2026-04-26 16:22 | 35.33687 | -89.15811 | 36000 ft | 398 kts | 261° |
| 2026-04-26 16:23 | 35.32325 | -89.22398 | 35996 ft | 399 kts | 260° |
| 2026-04-26 16:23 | 35.30957 | -89.28983 | 36173 ft | 399 kts | 260° |
| 2026-04-26 16:24 | 35.30274 | -89.32260 | 36625 ft | 395 kts | 260° |
| 2026-04-26 16:24 | 35.29597 | -89.35497 | 37103 ft | 389 kts | 261° |
| 2026-04-26 16:24 | 35.28931 | -89.38678 | 37605 ft | 383 kts | 261° |
| 2026-04-26 16:24 | 35.28273 | -89.41817 | 37957 ft | 380 kts | 261° |
| 2026-04-26 16:25 | 35.26972 | -89.48044 | 37988 ft | 379 kts | 261° |
| 2026-04-26 16:25 | 35.25665 | -89.54274 | 37990 ft | 377 kts | 261° |
| 2026-04-26 16:26 | 35.24571 | -89.59474 | 37981 ft | 376 kts | 261° |
| 2026-04-26 16:26 | 35.23052 | -89.66671 | 37987 ft | 375 kts | 261° |
| 2026-04-26 16:27 | 35.21746 | -89.72836 | 37983 ft | 374 kts | 261° |
| 2026-04-26 16:27 | 35.20440 | -89.78993 | 37984 ft | 374 kts | 261° |
| 2026-04-26 16:28 | 35.19352 | -89.84104 | 37980 ft | 374 kts | 261° |
| 2026-04-26 16:28 | 35.18037 | -89.90268 | 37986 ft | 375 kts | 261° |
| 2026-04-26 16:29 | 35.16717 | -89.96439 | 37984 ft | 376 kts | 261° |
| 2026-04-26 16:29 | 35.15390 | -90.02632 | 37965 ft | 377 kts | 260° |
| 2026-04-26 16:30 | 35.14056 | -90.08836 | 37957 ft | 378 kts | 260° |
| 2026-04-26 16:30 | 35.12715 | -90.15056 | 37957 ft | 379 kts | 260° |
| 2026-04-26 16:31 | 35.11370 | -90.21273 | 37967 ft | 379 kts | 260° |
| 2026-04-26 16:31 | 35.10021 | -90.27495 | 37962 ft | 378 kts | 260° |
| 2026-04-26 16:32 | 35.08670 | -90.33702 | 37953 ft | 378 kts | 260° |
| 2026-04-26 16:32 | 35.07317 | -90.39902 | 37956 ft | 378 kts | 260° |
| 2026-04-26 16:33 | 35.05962 | -90.46090 | 37960 ft | 377 kts | 259° |
| 2026-04-26 16:33 | 35.04616 | -90.52225 | 37974 ft | 376 kts | 260° |
| 2026-04-26 16:34 | 35.03260 | -90.58392 | 37977 ft | 376 kts | 260° |
| 2026-04-26 16:34 | 35.01900 | -90.64561 | 37967 ft | 376 kts | 259° |
| 2026-04-26 16:35 | 35.00540 | -90.70720 | 37979 ft | 376 kts | 259° |
| 2026-04-26 16:35 | 34.99176 | -90.76876 | 37976 ft | 375 kts | 259° |
| 2026-04-26 16:36 | 34.97812 | -90.83018 | 37966 ft | 375 kts | 259° |
| 2026-04-26 16:36 | 34.96451 | -90.89126 | 37973 ft | 375 kts | 259° |
| 2026-04-26 16:37 | 34.95079 | -90.95271 | 37965 ft | 375 kts | 259° |
| 2026-04-26 16:37 | 34.93705 | -91.01409 | 37978 ft | 375 kts | 259° |
| 2026-04-26 16:38 | 34.92327 | -91.07543 | 37982 ft | 375 kts | 259° |
| 2026-04-26 16:38 | 34.90950 | -91.13667 | 37983 ft | 375 kts | 259° |
| 2026-04-26 16:39 | 34.89567 | -91.19797 | 37982 ft | 375 kts | 259° |
| 2026-04-26 16:39 | 34.88180 | -91.25935 | 37983 ft | 376 kts | 259° |
| 2026-04-26 16:40 | 34.86796 | -91.32039 | 37979 ft | 376 kts | 259° |
| 2026-04-26 16:40 | 34.85401 | -91.38178 | 37992 ft | 376 kts | 259° |
| 2026-04-26 16:41 | 34.84003 | -91.44310 | 37992 ft | 376 kts | 259° |
| 2026-04-26 16:41 | 34.82601 | -91.50449 | 37970 ft | 377 kts | 259° |
| 2026-04-26 16:42 | 34.81195 | -91.56592 | 37965 ft | 376 kts | 259° |
| 2026-04-26 16:42 | 34.79807 | -91.62722 | 37967 ft | 375 kts | 259° |
| 2026-04-26 16:43 | 34.78486 | -91.68861 | 37959 ft | 375 kts | 260° |
| 2026-04-26 16:43 | 34.77169 | -91.74998 | 37957 ft | 375 kts | 259° |
| 2026-04-26 16:44 | 34.75844 | -91.81128 | 37955 ft | 374 kts | 259° |
| 2026-04-26 16:44 | 34.74515 | -91.87248 | 37957 ft | 374 kts | 259° |
| 2026-04-26 16:45 | 34.73183 | -91.93362 | 37967 ft | 374 kts | 259° |
| 2026-04-26 16:45 | 34.71848 | -91.99477 | 37952 ft | 374 kts | 259° |
| 2026-04-26 16:46 | 34.70520 | -92.05542 | 37966 ft | 373 kts | 259° |
| 2026-04-26 16:46 | 34.69182 | -92.11639 | 37970 ft | 373 kts | 259° |
| 2026-04-26 16:47 | 34.67831 | -92.17729 | 37969 ft | 373 kts | 257° |
| 2026-04-26 16:47 | 34.65977 | -92.23656 | 37970 ft | 376 kts | 253° |
| 2026-04-26 16:48 | 34.64001 | -92.29539 | 37978 ft | 376 kts | 253° |
| 2026-04-26 16:48 | 34.62030 | -92.35434 | 37968 ft | 377 kts | 253° |
| 2026-04-26 16:49 | 34.60066 | -92.41331 | 37951 ft | 377 kts | 253° |
| 2026-04-26 16:49 | 34.58101 | -92.47238 | 37957 ft | 377 kts | 253° |
| 2026-04-26 16:50 | 34.56133 | -92.53146 | 37948 ft | 378 kts | 253° |
| 2026-04-26 16:50 | 34.54175 | -92.59016 | 37956 ft | 377 kts | 253° |
| 2026-04-26 16:51 | 34.52202 | -92.64915 | 37951 ft | 377 kts | 253° |
| 2026-04-26 16:51 | 34.50228 | -92.70809 | 37944 ft | 377 kts | 253° |
| 2026-04-26 16:52 | 34.48583 | -92.75714 | 37953 ft | 378 kts | 253° |
| 2026-04-26 16:52 | 34.46271 | -92.82596 | 37941 ft | 377 kts | 253° |
| 2026-04-26 16:53 | 34.44287 | -92.88486 | 37950 ft | 377 kts | 253° |
| 2026-04-26 16:53 | 34.42301 | -92.94374 | 37947 ft | 378 kts | 252° |
| 2026-04-26 16:54 | 34.40306 | -93.00275 | 37951 ft | 379 kts | 252° |
| 2026-04-26 16:54 | 34.38308 | -93.06173 | 37954 ft | 379 kts | 252° |
| 2026-04-26 16:55 | 34.36305 | -93.12076 | 37952 ft | 379 kts | 252° |
| 2026-04-26 16:55 | 34.34311 | -93.17938 | 37950 ft | 380 kts | 252° |
| 2026-04-26 16:56 | 34.31292 | -93.26794 | 37950 ft | 379 kts | 252° |
| 2026-04-26 16:57 | 34.29277 | -93.32692 | 37945 ft | 379 kts | 252° |
| 2026-04-26 16:57 | 34.26253 | -93.41526 | 37936 ft | 379 kts | 252° |
| 2026-04-26 16:58 | 34.24574 | -93.46419 | 37936 ft | 379 kts | 252° |
| 2026-04-26 16:59 | 34.21204 | -93.56218 | 37933 ft | 378 kts | 252° |
| 2026-04-26 17:00 | 34.17172 | -93.67903 | 37928 ft | 378 kts | 252° |
| 2026-04-26 17:00 | 34.14124 | -93.76708 | 37919 ft | 379 kts | 252° |
| 2026-04-26 17:01 | 34.12147 | -93.82593 | 37917 ft | 378 kts | 253° |
| 2026-04-26 17:01 | 34.10217 | -93.88517 | 37916 ft | 378 kts | 253° |
| 2026-04-26 17:02 | 34.08288 | -93.94424 | 37913 ft | 379 kts | 253° |
| 2026-04-26 17:02 | 34.06346 | -94.00338 | 37909 ft | 379 kts | 253° |
| 2026-04-26 17:03 | 34.04409 | -94.06217 | 37905 ft | 379 kts | 253° |
| 2026-04-26 17:03 | 34.02456 | -94.12130 | 37897 ft | 379 kts | 253° |
| 2026-04-26 17:04 | 34.00497 | -94.18044 | 37897 ft | 379 kts | 253° |
| 2026-04-26 17:04 | 33.98538 | -94.23951 | 37896 ft | 379 kts | 253° |
| 2026-04-26 17:05 | 33.96581 | -94.29846 | 37898 ft | 379 kts | 253° |
| 2026-04-26 17:05 | 33.94620 | -94.35738 | 37900 ft | 379 kts | 253° |
| 2026-04-26 17:06 | 33.92656 | -94.41628 | 37899 ft | 379 kts | 253° |
| 2026-04-26 17:06 | 33.90701 | -94.47475 | 37899 ft | 379 kts | 253° |
| 2026-04-26 17:07 | 33.88730 | -94.53363 | 37901 ft | 379 kts | 253° |
| 2026-04-26 17:07 | 33.86763 | -94.59230 | 37904 ft | 378 kts | 253° |
| 2026-04-26 17:08 | 33.84789 | -94.65105 | 37904 ft | 378 kts | 253° |
| 2026-04-26 17:08 | 33.82819 | -94.70959 | 37911 ft | 378 kts | 253° |
| 2026-04-26 17:09 | 33.81177 | -94.75830 | 37910 ft | 378 kts | 253° |
| 2026-04-26 17:09 | 33.78867 | -94.82672 | 37917 ft | 379 kts | 253° |
| 2026-04-26 17:10 | 33.76866 | -94.88588 | 37927 ft | 390 kts | 253° |
| 2026-04-26 17:10 | 33.74775 | -94.94684 | 37793 ft | 398 kts | 252° |
| 2026-04-26 17:11 | 33.73709 | -94.97776 | 37210 ft | 399 kts | 252° |
| 2026-04-26 17:11 | 33.72649 | -95.00843 | 36570 ft | 397 kts | 252° |
| 2026-04-26 17:11 | 33.71591 | -95.03901 | 35882 ft | 396 kts | 252° |
| 2026-04-26 17:11 | 33.70532 | -95.06968 | 35085 ft | 398 kts | 252° |
| 2026-04-26 17:12 | 33.68402 | -95.13138 | 33402 ft | 403 kts | 252° |
| 2026-04-26 17:12 | 33.67324 | -95.16256 | 32512 ft | 405 kts | 252° |
| 2026-04-26 17:13 | 33.65173 | -95.22458 | 31229 ft | 398 kts | 252° |
| 2026-04-26 17:13 | 33.64113 | -95.25514 | 30609 ft | 395 kts | 252° |
| 2026-04-26 17:13 | 33.62026 | -95.31523 | 29383 ft | 386 kts | 252° |
| 2026-04-26 17:14 | 33.60999 | -95.34473 | 28919 ft | 378 kts | 252° |
| 2026-04-26 17:14 | 33.59010 | -95.40178 | 27975 ft | 368 kts | 252° |
| 2026-04-26 17:14 | 33.58035 | -95.42977 | 27364 ft | 368 kts | 252° |
| 2026-04-26 17:15 | 33.56084 | -95.48650 | 26180 ft | 368 kts | 251° |
| 2026-04-26 17:15 | 33.55112 | -95.51484 | 25577 ft | 365 kts | 251° |
| 2026-04-26 17:15 | 33.54148 | -95.54287 | 24979 ft | 362 kts | 251° |
| 2026-04-26 17:16 | 33.53514 | -95.56132 | 24579 ft | 360 kts | 251° |
| 2026-04-26 17:16 | 33.52560 | -95.58902 | 23991 ft | 358 kts | 251° |
| 2026-04-26 17:16 | 33.51615 | -95.61645 | 23405 ft | 355 kts | 250° |
| 2026-04-26 17:16 | 33.50676 | -95.64369 | 22816 ft | 353 kts | 251° |
| 2026-04-26 17:17 | 33.49741 | -95.67074 | 22231 ft | 350 kts | 251° |
| 2026-04-26 17:17 | 33.48811 | -95.69762 | 21648 ft | 348 kts | 250° |
| 2026-04-26 17:17 | 33.47880 | -95.72430 | 21059 ft | 346 kts | 250° |
| 2026-04-26 17:17 | 33.46949 | -95.75080 | 20479 ft | 344 kts | 250° |
| 2026-04-26 17:18 | 33.46022 | -95.77717 | 19901 ft | 343 kts | 250° |
| 2026-04-26 17:18 | 33.45100 | -95.80339 | 19321 ft | 340 kts | 250° |
| 2026-04-26 17:18 | 33.44183 | -95.82945 | 18752 ft | 338 kts | 250° |
| 2026-04-26 17:18 | 33.43272 | -95.85532 | 18177 ft | 336 kts | 250° |
| 2026-04-26 17:19 | 33.41479 | -95.90628 | 17051 ft | 333 kts | 250° |
| 2026-04-26 17:19 | 33.40587 | -95.93159 | 16560 ft | 328 kts | 250° |
| 2026-04-26 17:19 | 33.39699 | -95.95677 | 16005 ft | 326 kts | 250° |
| 2026-04-26 17:20 | 33.38819 | -95.98173 | 15453 ft | 325 kts | 249° |
| 2026-04-26 17:20 | 33.38238 | -95.99819 | 15085 ft | 324 kts | 249° |
| 2026-04-26 17:20 | 33.37068 | -96.03132 | 14329 ft | 322 kts | 249° |
| 2026-04-26 17:20 | 33.36197 | -96.05599 | 13770 ft | 320 kts | 249° |
| 2026-04-26 17:21 | 33.35329 | -96.08049 | 13214 ft | 319 kts | 248° |
| 2026-04-26 17:21 | 33.34467 | -96.10482 | 12655 ft | 318 kts | 248° |
| 2026-04-26 17:21 | 33.33605 | -96.12915 | 12095 ft | 317 kts | 248° |
| 2026-04-26 17:21 | 33.32746 | -96.15340 | 11521 ft | 316 kts | 248° |
| 2026-04-26 17:22 | 33.31886 | -96.17763 | 10915 ft | 316 kts | 247° |
| 2026-04-26 17:22 | 33.31028 | -96.20176 | 10445 ft | 313 kts | 246° |
| 2026-04-26 17:22 | 33.30198 | -96.22506 | 10305 ft | 298 kts | 246° |
| 2026-04-26 17:22 | 33.29404 | -96.24736 | 10159 ft | 285 kts | 246° |
| 2026-04-26 17:23 | 33.28651 | -96.26852 | 10025 ft | 274 kts | 246° |
| 2026-04-26 17:23 | 33.27916 | -96.28919 | 9732 ft | 270 kts | 246° |
| 2026-04-26 17:23 | 33.27182 | -96.30975 | 9394 ft | 267 kts | 245° |
| 2026-04-26 17:23 | 33.26450 | -96.33013 | 9033 ft | 266 kts | 243° |
| 2026-04-26 17:24 | 33.25485 | -96.34859 | 8809 ft | 260 kts | 232° |
| 2026-04-26 17:24 | 33.24365 | -96.36554 | 8608 ft | 260 kts | 230° |
| 2026-04-26 17:24 | 33.23241 | -96.38258 | 8398 ft | 263 kts | 232° |
| 2026-04-26 17:24 | 33.22163 | -96.40033 | 8179 ft | 263 kts | 233° |
| 2026-04-26 17:25 | 33.21108 | -96.41810 | 7967 ft | 261 kts | 233° |
| 2026-04-26 17:25 | 33.20067 | -96.43568 | 7749 ft | 258 kts | 233° |
| 2026-04-26 17:25 | 33.19033 | -96.45309 | 7542 ft | 256 kts | 233° |
| 2026-04-26 17:25 | 33.18000 | -96.47039 | 7331 ft | 255 kts | 232° |
| 2026-04-26 17:26 | 33.16973 | -96.48755 | 7130 ft | 253 kts | 232° |
| 2026-04-26 17:26 | 33.15952 | -96.50460 | 6930 ft | 252 kts | 232° |
| 2026-04-26 17:26 | 33.14933 | -96.52157 | 6723 ft | 251 kts | 232° |
| 2026-04-26 17:26 | 33.13918 | -96.53845 | 6523 ft | 251 kts | 232° |
| 2026-04-26 17:27 | 33.12902 | -96.55533 | 6319 ft | 251 kts | 232° |
| 2026-04-26 17:27 | 33.11886 | -96.57223 | 6122 ft | 251 kts | 231° |
| 2026-04-26 17:27 | 33.10864 | -96.58917 | 5916 ft | 252 kts | 231° |
| 2026-04-26 17:27 | 33.09840 | -96.60614 | 5710 ft | 251 kts | 231° |
| 2026-04-26 17:28 | 33.08818 | -96.62304 | 5515 ft | 251 kts | 231° |
| 2026-04-26 17:28 | 33.08402 | -96.62991 | 5438 ft | 252 kts | 231° |
| 2026-04-26 17:28 | 33.07486 | -96.64510 | 5252 ft | 252 kts | 231° |
| 2026-04-26 17:28 | 33.06465 | -96.66205 | 5047 ft | 252 kts | 231° |
| 2026-04-26 17:29 | 33.05455 | -96.67877 | 4853 ft | 252 kts | 231° |
| 2026-04-26 17:29 | 33.04763 | -96.69024 | 4721 ft | 252 kts | 231° |
| 2026-04-26 17:29 | 33.03407 | -96.71263 | 4454 ft | 251 kts | 231° |
| 2026-04-26 17:29 | 33.02390 | -96.72945 | 4249 ft | 248 kts | 231° |
| 2026-04-26 17:30 | 33.01411 | -96.74564 | 4159 ft | 232 kts | 231° |
| 2026-04-26 17:30 | 33.00502 | -96.76070 | 4028 ft | 216 kts | 230° |
| 2026-04-26 17:30 | 32.99649 | -96.77479 | 3916 ft | 203 kts | 230° |
| 2026-04-26 17:30 | 32.98854 | -96.78791 | 3792 ft | 188 kts | 229° |
| 2026-04-26 17:31 | 32.98096 | -96.80035 | 3475 ft | 185 kts | 229° |
| 2026-04-26 17:31 | 32.97356 | -96.81253 | 3272 ft | 179 kts | 229° |
| 2026-04-26 17:31 | 32.96635 | -96.82443 | 3145 ft | 177 kts | 229° |
| 2026-04-26 17:31 | 32.95906 | -96.83629 | 2983 ft | 174 kts | 226° |
| 2026-04-26 17:32 | 32.95142 | -96.84704 | 2795 ft | 165 kts | 224° |
| 2026-04-26 17:32 | 32.94402 | -96.85714 | 2630 ft | 159 kts | 224° |
| 2026-04-26 17:32 | 32.93675 | -96.86706 | 2466 ft | 159 kts | 224° |
| 2026-04-26 17:32 | 32.92940 | -96.87710 | 2303 ft | 162 kts | 224° |
| 2026-04-26 17:33 | 32.92201 | -96.88721 | 2121 ft | 161 kts | 224° |
| 2026-04-26 17:33 | 32.91424 | -96.89679 | 1947 ft | 160 kts | 215° |
| 2026-04-26 17:33 | 32.90513 | -96.90236 | 1826 ft | 138 kts | 194° |
| 2026-04-26 17:34 | 32.88738 | -96.90140 | 1457 ft | 128 kts | 160° |
| 2026-04-26 17:34 | 32.87956 | -96.89601 | 1297 ft | 134 kts | 143° |
| 2026-04-26 17:34 | 32.87275 | -96.88812 | 1086 ft | 137 kts | 136° |
| 2026-04-26 17:34 | 32.86610 | -96.88029 | 907 ft | 135 kts | 138° |
| 2026-04-26 17:35 | 32.85946 | -96.87258 | 725 ft | 129 kts | 136° |
| 2026-04-26 17:35 | 32.85304 | -96.86534 | 572 ft | 125 kts | 137° |
| 2026-04-26 17:35 | 32.84697 | -96.85837 | 479 ft | 114 kts | 137° |
| 2026-04-26 17:35 | 32.84231 | -96.85297 | 481 ft | 72 kts | 136° |
| 2026-04-26 17:36 | 32.83973 | -96.85004 | 478 ft | 30 kts | 136° |
| 2026-04-26 17:36 | 32.83842 | -96.84852 | 481 ft | 25 kts | 136° |
| 2026-04-26 17:36 | 32.83736 | -96.84726 | 475 ft | 13 kts | 131° |
| 2026-04-26 17:36 | 32.83745 | -96.84639 | 481 ft | 8 kts | 48° |
| 2026-04-26 17:37 | 32.83779 | -96.84618 | 481 ft | 0 kts | 7° |
| 2026-04-26 17:38 | 32.83788 | -96.84619 | 481 ft | 5 kts | 353° |
| 2026-04-26 17:38 | 32.83842 | -96.84666 | 481 ft | 15 kts | 316° |
| 2026-04-26 17:38 | 32.83929 | -96.84767 | 474 ft | 19 kts | 315° |
| 2026-04-26 17:39 | 32.84031 | -96.84885 | 484 ft | 22 kts | 315° |
| 2026-04-26 17:39 | 32.84146 | -96.85018 | 475 ft | 24 kts | 315° |
| 2026-04-26 17:39 | 32.84268 | -96.85159 | 478 ft | 24 kts | 316° |
| 2026-04-26 17:39 | 32.84383 | -96.85293 | 477 ft | 23 kts | 315° |
| 2026-04-26 17:40 | 32.84512 | -96.85347 | 474 ft | 18 kts | 4° |
| 2026-04-26 17:40 | 32.84595 | -96.85338 | 475 ft | 18 kts | 6° |
| 2026-04-26 17:40 | 32.84741 | -96.85283 | 477 ft | 17 kts | 69° |
| 2026-04-26 17:40 | 32.84748 | -96.85146 | 481 ft | 16 kts | 90° |
| 2026-04-26 17:41 | 32.84747 | -96.85015 | 481 ft | 16 kts | 91° |
| 2026-04-26 17:41 | 32.84739 | -96.84913 | 481 ft | 12 kts | 118° |
| 2026-04-26 17:41 | 32.84676 | -96.84894 | 474 ft | 8 kts | 180° |
| 2026-04-26 17:41 | 32.84651 | -96.84894 | 481 ft | 2 kts | 181° |
| 2026-04-26 17:42 | 32.84642 | -96.84894 | 481 ft | 0 kts | 181° |